Thunder radar more information blitzortung!


avis per Pluja more information rain snow radar


Visita la nostra xarxa de llocs de meteo:

Template documentation
and downloads

And another site



Rain From: 17-10-2018 23:00 Until: 18-10-2018 16:59 warning for: Rain Level: Yellow info button

Pagina Historial Weather Underground text

Diari Resum February 10, 2016 Unitats:  Mètric    Imperial   Tant
« Previous Dia
SegĂźent Dia »
Diari Setmana Mensual Anual Personalitzada
  Maxima: Minima: Media:
Temperatura: -17.8 °C -12.2 °C -10.7 °C
Punt de rosada: -17.8 °C -16.2 °C -14.8 °C
Humitat: Humidity % 45 % 60 %
Wind Speed: 0 km/h 0 km/h 9 km/h
RĂ fegues de vent: 0 km/h - -
Vent:- - South
Pression baro: 0 hPa 34097 hPa -
Precipitacions: 0 mm    
Historical Graphs
 
 
Dades de taula per February 10, 2016
Temps Temperatura Punt de rosada Pression baro Vent Wind Speed RĂ fegues de vent Humitat Rainfall Rate (Hourly)
-17.8 °C -17.8 °C 0 hPa Calm     Humidity % 0 mm
11:19 -9.4 °C -16 °C 34256.2 hPa WSW 11.1 km/h 12.2 km/h 45 % 0 mm
11:24 -9.5 °C -16.1 °C 34256.2 hPa WSW 26.9 km/h 26.9 km/h 45 % 0 mm
11:29 -9.5 °C -15.9 °C 34256.2 hPa SSW 20.9 km/h 20.9 km/h 46 % 0 mm
11:34 -9.6 °C -16.2 °C 34256.2 hPa WSW 26.9 km/h 26.9 km/h 45 % 0 mm
11:39 -9.7 °C -16.1 °C 34256.2 hPa SW 23.8 km/h 23.8 km/h 46 % 0 mm
11:44 -9.8 °C -16.2 °C 34256.2 hPa SW 20.9 km/h 20.9 km/h 46 % 0 mm
11:49 -9.8 °C -16.2 °C 34222.3 hPa West 20.9 km/h 20.9 km/h 46 % 0 mm
11:54 -9.7 °C -16.1 °C 34222.3 hPa WSW 14 km/h 14 km/h 46 % 0 mm
11:59 -9.7 °C -16.1 °C 34222.3 hPa WSW 29.8 km/h 29.8 km/h 46 % 0 mm
12:04 -9.7 °C -16.1 °C 34256.2 hPa SSW 15.6 km/h 16.1 km/h 46 % 0 mm
12:09 -9.6 °C -15.9 °C 34256.2 hPa West 17.9 km/h 17.9 km/h 46 % 0 mm
12:14 -9.6 °C -15.9 °C 34256.2 hPa WNW 20.9 km/h 20.9 km/h 46 % 0 mm
12:19 -9.4 °C -15.9 °C 34293.4 hPa WSW 11.9 km/h 11.9 km/h 46 % 0 mm
12:24 -9.4 °C -15.9 °C 34293.4 hPa WSW 6.3 km/h 11.6 km/h 46 % 0 mm
12:29 -9.4 °C -15.9 °C 34293.4 hPa WSW 6.3 km/h 11.6 km/h 46 % 0 mm
13:29 -8.9 °C -15.3 °C 34198.6 hPa WSW 26.9 km/h 26.9 km/h 46 % 0 mm
13:34 -8.9 °C -15.3 °C 34198.6 hPa SW 20.9 km/h 20.9 km/h 46 % 0 mm
13:39 -8.8 °C -15.2 °C 34198.6 hPa SW 25.1 km/h 25.1 km/h 46 % 0 mm
13:44 -8.7 °C -15.2 °C 34198.6 hPa WSW 20.9 km/h 20.9 km/h 46 % 0 mm
13:49 -8.6 °C -15.1 °C 34198.6 hPa SSW 29.8 km/h 29.8 km/h 46 % 0 mm
13:54 -8.2 °C -14.9 °C 34164.7 hPa WSW 23.8 km/h 23.8 km/h 45 % 0 mm
13:59 -8.6 °C -15.2 °C 34164.7 hPa SSW 26.9 km/h 26.9 km/h 45 % 0 mm
14:09 -8.8 °C -15.4 °C 34130.9 hPa West 20.9 km/h 20.9 km/h 45 % 0 mm
14:14 -8.7 °C -15.2 °C 34130.9 hPa WSW 11.9 km/h 11.9 km/h 46 % 0 mm
14:24 -9 °C -15.4 °C 34130.9 hPa SW 17.9 km/h 17.9 km/h 46 % 0 mm
14:29 -9 °C -15.4 °C 34130.9 hPa SW 23.8 km/h 23.8 km/h 46 % 0 mm
14:34 -9.1 °C -15.5 °C 34130.9 hPa West 20.9 km/h 20.9 km/h 46 % 0 mm
14:39 -9.2 °C -15.4 °C 34097 hPa SW 20.9 km/h 20.9 km/h 47 % 0 mm
14:44 -9.3 °C -15.5 °C 34097 hPa SW 29.8 km/h 29.8 km/h 47 % 0 mm
14:54 -9.6 °C -15.3 °C 34130.9 hPa WSW 19.2 km/h 19.2 km/h 50 % 0 mm
14:59 -9.7 °C -15.4 °C 34130.9 hPa WSW 20.9 km/h 20.9 km/h 50 % 0 mm
15:04 -9.7 °C -15.3 °C 34130.9 hPa SW 23.8 km/h 23.8 km/h 51 % 0 mm
15:14 -9.8 °C -15.4 °C 34097 hPa SW 11.9 km/h 11.9 km/h 51 % 0 mm
15:19 -9.8 °C -15.2 °C 34097 hPa WSW 16.6 km/h 16.6 km/h 52 % 0 mm
15:24 -9.9 °C -15.2 °C 34130.9 hPa WSW 11.9 km/h 11.9 km/h 53 % 0 mm
15:29 -10.1 °C -15 °C 34130.9 hPa WSW 9 km/h 9 km/h 55 % 0 mm
15:34 -10.2 °C -14.9 °C 34130.9 hPa West 9 km/h 9 km/h 56 % 0 mm
15:39 -10.3 °C -14.8 °C 34130.9 hPa WSW 9 km/h 9 km/h 58 % 0 mm
15:44 -10.3 °C -14.7 °C 34130.9 hPa WSW 9.8 km/h 9.8 km/h 59 % 0 mm
15:49 -10.4 °C -14.6 °C 34130.9 hPa NNW 8 km/h 8 km/h 61 % 0 mm
15:54 -10.4 °C -14.6 °C 34130.9 hPa WSW 9 km/h 9 km/h 61 % 0 mm
15:59 -10.4 °C -14.5 °C 34130.9 hPa West 9 km/h 9 km/h 61 % 0 mm
16:04 -10.4 °C -14.5 °C 34130.9 hPa WSW 17.9 km/h 17.9 km/h 61 % 0 mm
16:09 -10.4 °C -14.5 °C 34130.9 hPa West 6 km/h 6 km/h 61 % 0 mm
16:14 -10.4 °C -14.6 °C 34130.9 hPa West 6 km/h 6 km/h 61 % 0 mm
16:24 -10.5 °C -14.4 °C 34097 hPa South 6 km/h 6 km/h 62 % 0 mm
16:29 -10.5 °C -14.6 °C 34097 hPa NW 6.8 km/h 6.8 km/h 61 % 0 mm
16:34 -10.5 °C -14.4 °C 34097 hPa ESE 6 km/h 6 km/h 62 % 0 mm
16:39 -10.5 °C -14.6 °C 34097 hPa North 6 km/h 6 km/h 61 % 0 mm
16:49 -10.5 °C -14.4 °C 34097 hPa ENE 3.1 km/h 3.1 km/h 62 % 0 mm
16:54 -10.5 °C -14.4 °C 34097 hPa Calm     62 % 0 mm
17:04 -10.5 °C -14.4 °C 34097 hPa SW 6 km/h 6 km/h 62 % 0 mm
17:09 -10.6 °C -14.5 °C 34097 hPa WSW 6 km/h 6 km/h 62 % 0 mm
17:14 -10.6 °C -14.5 °C 34097 hPa WSW 7.6 km/h 7.6 km/h 62 % 0 mm
17:24 -10.6 °C -14.4 °C 34097 hPa WSW 14 km/h 14 km/h 63 % 0 mm
17:29 -10.7 °C -14.5 °C 34097 hPa WSW 5.1 km/h 5.1 km/h 63 % 0 mm
17:34 -10.7 °C -14.5 °C 34097 hPa NNE 5.1 km/h 5.1 km/h 63 % 0 mm
17:39 -10.7 °C -14.5 °C 34097 hPa WNW 8 km/h   63 % 0 mm
17:44 -10.7 °C -14.6 °C 34097 hPa WSW 11.9 km/h 11.9 km/h 63 % 0 mm
17:49 -10.7 °C -14.6 °C 34097 hPa West 8.5 km/h 8.5 km/h 63 % 0 mm
17:54 -10.8 °C -14.6 °C 34097 hPa WSW 6 km/h 6 km/h 63 % 0 mm
17:59 -10.8 °C -14.5 °C 34097 hPa WSW 3.1 km/h 3.7 km/h 64 % 0 mm
18:00 -10.8 °C -14.5 °C 34097 hPa WSW 4.2 km/h 4.2 km/h 64 % 0 mm
18:05 -10.8 °C -14.3 °C 34097 hPa Calm   5.1 km/h 65 % 0 mm
18:10 -10.8 °C -14.5 °C 34097 hPa WSW 2.6 km/h 5.1 km/h 64 % 0 mm
18:15 -10.8 °C -14.5 °C 34097 hPa WSW 2.6 km/h 7.7 km/h 64 % 0 mm
18:20 -10.8 °C -14.5 °C 34097 hPa WSW 2.6 km/h 7.7 km/h 64 % 0 mm
18:25 -10.8 °C -14.5 °C 34097 hPa Calm   10.3 km/h 64 % 0 mm
18:30 -10.8 °C -14.5 °C 34097 hPa West 2.6 km/h 5.1 km/h 64 % 0 mm
18:35 -10.9 °C -14.4 °C 34097 hPa Calm   2.6 km/h 65 % 0 mm
18:40 -10.9 °C -14.4 °C 34097 hPa Calm   5.1 km/h 65 % 0 mm
18:45 -10.9 °C -14.4 °C 34097 hPa Calm   2.6 km/h 65 % 0 mm
18:50 -10.9 °C -14.4 °C 34097 hPa NNW 2.6 km/h 5.1 km/h 65 % 0 mm
18:55 -10.9 °C -14.4 °C 34130.9 hPa Calm   2.6 km/h 65 % 0 mm
19:00 -10.9 °C -14.4 °C 34130.9 hPa WNW 2.6 km/h 5.1 km/h 65 % 0 mm
19:10 -10.9 °C -14.4 °C 34130.9 hPa NW 2.6 km/h 5.1 km/h 65 % 0 mm
19:15 -10.9 °C -14.4 °C 34130.9 hPa Calm   2.6 km/h 65 % 0 mm
19:20 -10.9 °C -14.4 °C 34130.9 hPa Calm   5.1 km/h 65 % 0 mm
19:25 -10.9 °C -14.4 °C 34130.9 hPa WNW 3.1 km/h   65 % 0 mm
19:30 -10.9 °C -14.4 °C 34130.9 hPa Calm   5.1 km/h 65 % 0 mm
19:35 -10.8 °C -14.4 °C 34130.9 hPa NW 2.6 km/h 2.6 km/h 65 % 0 mm
19:40 -10.8 °C -14.3 °C 34130.9 hPa North 2.6 km/h 5.1 km/h 66 % 0 mm
19:45 -10.8 °C -14.3 °C 34130.9 hPa NNE 5.1 km/h 7.7 km/h 66 % 0 mm
19:50 -10.9 °C -14.3 °C 34130.9 hPa North 5.1 km/h 10.3 km/h 66 % 0 mm
19:55 -10.9 °C -14.3 °C 34130.9 hPa North 2.6 km/h 12.9 km/h 66 % 0 mm
20:00 -10.9 °C -14.3 °C 34130.9 hPa North 2.6 km/h 7.7 km/h 66 % 0 mm
20:05 -10.9 °C -14.4 °C 34130.9 hPa Calm   5.1 km/h 66 % 0 mm
20:10 -10.9 °C -14.4 °C 34130.9 hPa Calm   5.1 km/h 66 % 0 mm
20:15 -10.9 °C -14.4 °C 34130.9 hPa NNE 5.1 km/h 7.7 km/h 66 % 0 mm
20:20 -10.9 °C -14.4 °C 34130.9 hPa Calm   12.9 km/h 66 % 0 mm
20:25 -11 °C -14.4 °C 34130.9 hPa NNE 2.6 km/h 5.1 km/h 66 % 0 mm
20:30 -11 °C -14.4 °C 34130.9 hPa North 2.6 km/h 7.7 km/h 66 % 0 mm
20:35 -11 °C -14.4 °C 34130.9 hPa ENE 5.1 km/h 12.9 km/h 66 % 0 mm
20:40 -11.1 °C -14.3 °C 34130.9 hPa East 5.1 km/h 12.9 km/h 67 % 0 mm
20:45 -11.1 °C -14.4 °C 34130.9 hPa ESE 5.1 km/h 7.7 km/h 67 % 0 mm
20:50 -11.2 °C -14.3 °C 34130.9 hPa ENE 5.1 km/h 7.7 km/h 68 % 0 mm
20:55 -11.2 °C -14.4 °C 34164.7 hPa NE 2.6 km/h 7.7 km/h 68 % 0 mm
21:00 -11.2 °C -14.4 °C 34164.7 hPa NE 2.6 km/h 7.7 km/h 68 % 0 mm
21:05 -11.2 °C -14.4 °C 34164.7 hPa ENE 2.6 km/h 5.1 km/h 68 % 0 mm
21:10 -11.2 °C -14.4 °C 34164.7 hPa NE 2.6 km/h 5.1 km/h 68 % 0 mm
21:15 -11.2 °C -14.4 °C 34164.7 hPa Calm   2.6 km/h 68 % 0 mm
21:25 -11.2 °C -14.3 °C 34198.6 hPa Calm   2.6 km/h 69 % 0 mm
21:30 -11.3 °C -14.3 °C 34198.6 hPa Calm   2.6 km/h 69 % 0 mm
21:35 -11.2 °C -14.3 °C 34198.6 hPa West 2.6 km/h 5.1 km/h 69 % 0 mm
21:40 -11.2 °C -14.3 °C 34198.6 hPa Calm   2.6 km/h 69 % 0 mm
21:45 -11.2 °C -14.3 °C 34198.6 hPa East 5.1 km/h 7.7 km/h 69 % 0 mm
21:50 -11.2 °C -14.3 °C 34198.6 hPa ESE 5.1 km/h 12.9 km/h 69 % 0 mm
21:55 -11.3 °C -14.4 °C 34198.6 hPa ESE 7.7 km/h 15.6 km/h 68 % 0 mm
22:00 -11.3 °C -14.5 °C 34198.6 hPa East 12.9 km/h 15.6 km/h 68 % 0 mm
22:05 -11.4 °C -14.6 °C 34198.6 hPa East 7.7 km/h 10.3 km/h 68 % 0 mm
22:10 -11.4 °C -14.6 °C 34164.7 hPa East 5.1 km/h 15.6 km/h 68 % 0 mm
22:15 -11.5 °C -14.8 °C 34164.7 hPa ENE 5.1 km/h 10.3 km/h 67 % 0 mm
22:20 -11.5 °C -14.7 °C 34164.7 hPa ENE 5.1 km/h 10.3 km/h 68 % 0 mm
22:25 -11.6 °C -14.8 °C 34198.6 hPa ENE 5.1 km/h 12.9 km/h 67 % 0 mm
22:30 -11.6 °C -14.8 °C 34198.6 hPa ENE 12.9 km/h 15.6 km/h 68 % 0 mm
22:35 -11.7 °C -14.8 °C 34198.6 hPa ENE 12.9 km/h 18.2 km/h 68 % 0 mm
22:40 -11.7 °C -14.8 °C 34164.7 hPa ENE 7.7 km/h 12.9 km/h 68 % 0 mm
22:45 -11.7 °C -14.8 °C 34164.7 hPa ENE 12.9 km/h 18.2 km/h 69 % 0 mm
22:50 -11.8 °C -14.8 °C 34164.7 hPa ENE 7.7 km/h 15.6 km/h 69 % 0 mm
22:55 -11.8 °C -14.8 °C 34198.6 hPa East 7.7 km/h 12.9 km/h 70 % 0 mm
23:00 -11.8 °C -14.6 °C 34198.6 hPa East 5.1 km/h 15.6 km/h 71 % 0 mm
23:05 -11.9 °C -14.6 °C 34198.6 hPa NE 7.7 km/h 15.6 km/h 72 % 0 mm
23:10 -11.9 °C -14.7 °C 34198.6 hPa NE 2.6 km/h 12.9 km/h 71 % 0 mm
23:15 -11.9 °C -14.8 °C 34198.6 hPa NE 7.7 km/h 12.9 km/h 70 % 0 mm
23:20 -11.9 °C -14.8 °C 34198.6 hPa NE 5.1 km/h 7.7 km/h 70 % 0 mm
23:25 -12 °C -14.9 °C 34198.6 hPa East 7.7 km/h 15.6 km/h 70 % 0 mm
23:30 -12.1 °C -14.9 °C 34198.6 hPa East 7.7 km/h 15.6 km/h 70 % 0 mm
23:35 -12.1 °C -15.1 °C 34198.6 hPa East 7.7 km/h 12.9 km/h 70 % 0 mm
23:40 -12.1 °C -15.1 °C 34198.6 hPa East 5.1 km/h 12.9 km/h 69 % 0 mm
23:45 -12.2 °C -15.1 °C 34198.6 hPa ENE 7.7 km/h 12.9 km/h 70 % 0 mm
23:50 -12.2 °C -15.1 °C 34198.6 hPa ENE 5.1 km/h 12.9 km/h 70 % 0 mm
23:55 -12.2 °C -15.2 °C 34198.6 hPa East 7.7 km/h 18.2 km/h 69 % 0 mm
Meteo Sesrovires
Elogis d' Weather Underground - 1.25 mb

Guio original per  Jim McMurry - jmcmurry@mwt.net Adaptat per a la plantilla per  Wim van der Kuil - Leuven-Template.eu

Trobareu la nostra informacio del temps tambe a:

Weather Underground

AWEKAS